Carlos Iglesias

Scout - Platense
4 Jun 2028
Sunday
Process

Personality

Adaptability (2) Ambition (6) Controversy (16) Loyalty (15) Pressure (7) Professionalism (8) Sportsmanship (15) Temperament (17)

Profile

Coaching Style Democratic
License Continental A
Determination 8
Man Management 7
Motivating 7
Discipline 11
Job Satisfaction
100%
Fatigue
0%
Role Scout
Wage 44.6K p/w
Contract 14.03.2029

Performance

Behaviour Good
Training Effectiveness
39%
Player Development
40%
Injury Prevention
35%
Tactical Implementation
35%

Recent Events

Assessed a player now
Attended a recruitment meeting 7d ago
Attended a recruitment meeting 7d ago
Assessed a player 7d ago
Assessed a player 7d ago
Assessed a player 7d ago
Assessed a player 7d ago
Assessed a player 14d ago

Currently Monitoring

187
Player Club Status Ability Confidence Watched Last Observed Latest Vote
Eli Junior Kroupi Bournemouth Active 155 / 153 40% 6 29.05.2028 -
Tyler Fletcher Rotherham United Active 110 / 110 40% 4 29.05.2028 -
Dani Díaz Real Sociedad Active 119 / 133 40% 2 29.05.2028 -
Jake Evans Crewe Alexandra Active 103 / 126 40% 3 27.05.2028 -
Amin Nabizada Exeter City Active 105 / 110 40% 3 27.05.2028 -
Trey Nyoni Rotherham United Active 131 / 159 40% 5 26.05.2028 -
Gabriel Mec Feirense Active 127 / 144 40% 3 26.05.2028 -
Kiani Inge Groningen Active 119 / 107 40% 2 25.05.2028 -
Noah Fernandez PSV Active 127 / 123 40% 3 25.05.2028 -
Gaël Lafont Dolomiti Bellunesi Active 100 / 106 40% 1 25.05.2028 -
Ibrahim Fullah Charlton Athletic Active 122 / 126 40% 1 25.05.2028 -
Riquelme Thompson-Jones Accrington Stanley Active 116 / 127 40% 1 25.05.2028 -
Andrea Cogoni Cosenza Active 110 / 102 40% 1 25.05.2028 -
Jan Bürger Northampton Town Active 126 / 113 40% 3 21.05.2028 -
Luca Williams-Barnett Walsall Active 121 / 139 40% 2 21.05.2028 -
Jamal Iddrissou Pergolettese Active 111 / 122 40% 2 20.05.2028 -
Henrique Carmo Sochi Active 133 / 140 40% 3 20.05.2028 -
Ben Broggio Mansfield Town Active 118 / 105 40% 1 20.05.2028 -
Edison Gruezo Guadalajara Active 112 / 124 40% 3 19.05.2028 -
Rio Ngumoha Plymouth Argyle Active 142 / 147 40% 2 19.05.2028 -
Kelian Le Pironnec Mirandés Active 93 / 109 40% 1 19.05.2028 -
Mattia Puzone Siracusa Active 104 / 110 40% 1 19.05.2028 -
Itumeleng Jali Spezia Active 111 / 134 40% 1 19.05.2028 -
Adnan Nainggolan KV Oostende Active 104 / 107 40% 1 18.05.2028 -
Lautaro Dufur Juventud Active 107 / 101 40% 1 18.05.2028 -
Gabe Forsyth Colchester United Active 115 / 112 40% 2 16.05.2028 -
Christos Mouzakitis Hull City Active 136 / 131 40% 5 14.05.2028 -
Luke Brooke-Smith Chesterfield Active 108 / 117 40% 1 14.05.2028 -
Leo Pecover Swindon Town Active 98 / 114 40% 1 14.05.2028 -
Mateus Mané Burnley Active 135 / 150 40% 6 13.05.2028 -
Chris Rigg Sunderland Active 132 / 141 40% 3 13.05.2028 -
Sindre Walle Egeli Udinese Active 148 / 155 40% 5 12.05.2028 -
Kerim Alajbegović Modena Active 131 / 130 40% 4 12.05.2028 -
Giovanni Cantizano Fulham Active 119 / 133 40% 4 11.05.2028 -
Rodrigo Mora AC Milan Active 137 / 142 40% 1 11.05.2028 -
Tomás Peixoto Porto Active 101 / 104 40% 2 10.05.2028 -
Germán Barbas Burgos Active 111 / 126 40% 5 09.05.2028 -
Romelle Donovan Brentford Active 137 / 133 40% 1 09.05.2028 -
Daniel Banjaqui Benfica Active 132 / 125 40% 1 09.05.2028 -
Salvador Blopá Sporting CP Active 120 / 137 40% 8 08.05.2028 -
Omar Khedr Gillingham Active 111 / 112 40% 3 06.05.2028 -
Martim Cunha Porto Active 103 / 122 40% 2 04.05.2028 -
İsak Vural Audace Cerignola Active 130 / 134 40% 1 04.05.2028 -
Augusto Bando Ascoli Active 101 / 115 40% 1 04.05.2028 -
Abubakar Adams Aduana Stars Active 86 / 75 40% 1 04.05.2028 -
Sidiki Chérif Newcastle United Active 129 / 152 40% 2 02.05.2028 -
Shea Lacey Crystal Palace Active 137 / 131 40% 2 01.05.2028 -
Ryan Kavuma-McQueen Accrington Stanley Active 117 / 136 40% 2 28.04.2028 -
Josh Nichols Oldham Athletic Active 119 / 135 40% 1 28.04.2028 -
Josh Acheampong Everton Active 144 / 159 40% 2 27.04.2028 -
Oskar Pietuszewski Estrela da Amadora Active 138 / 143 40% 3 23.04.2028 -
Babis Kostoulas Oxford United Active 140 / 162 40% 1 15.04.2028 -
Josh King Newcastle United Active 136 / 146 40% 1 14.04.2028 -
Honest Ahanor Atalanta Active 139 / 136 40% 1 12.04.2028 -
Ryan McAidoo Oldham Athletic Active 124 / 133 40% 1 06.04.2028 -
Lander Astiazarán Real Sociedad Active 114 / 101 40% 2 30.05.2027 -
Victor Hernandez Santa Fe Active 118 / 134 40% 2 30.05.2027 -
Riyad Idrissi Cagliari Active 119 / 128 40% 1 29.05.2027 -
Riley Owen Stevenage Active 101 / 114 40% 4 25.05.2027 -
Rivaldo Mkhize Black Aces Active 78 / 88 40% 3 24.05.2027 -
Borna Knezović Casarano Active 114 / 118 40% 3 24.05.2027 -
Landerson Moreirense Active 97 / 99 40% 2 24.05.2027 -
Dylan Cabral Arsenal Active 100 / 102 40% 2 24.05.2027 -
Luka Andrade Montevideo City Torque Active 96 / 105 40% 6 23.05.2027 -
Lwanda Mbanjwa Platinum Stars Active 98 / 81 40% 2 23.05.2027 -
Miguel Figueiredo Benfica Active 103 / 111 40% 3 22.05.2027 -
Mpho Khethang FC Diarra Active 71 / 81 40% 2 22.05.2027 -
Jesús Rodríguez Como Active 154 / 139 40% 1 21.05.2027 -
João Abreu Porto Active 93 / 95 40% 1 21.05.2027 -
Ousseynou Seck Randers Active 116 / 121 40% 3 19.05.2027 -
Miloš Jovičić Zabbar St. Patrick Active 89 / 100 40% 3 19.05.2027 -
Fábio Jaló Barnsley Active 105 / 94 40% 1 19.05.2027 -
Gonçalo Oliveira Benfica Active 104 / 120 40% 3 18.05.2027 -
Chimobi Igwilo Rangers International Active 83 / 89 40% 1 17.05.2027 -
Gabriele Bertolini Vicenza Active 107 / 88 40% 1 17.05.2027 -
Eduardo Lozano Botafogo Active 144 / 155 40% 4 14.05.2027 -
Francis Gomez Cardiff City Active 96 / 125 40% 3 13.05.2027 -
Eliás Montiel Borussia Dortmund Active 134 / 148 40% 2 13.05.2027 -
Leandro Martins Benfica Active 89 / 89 40% 1 11.05.2027 -
Elijas Gunnergård Ortan Ahrobiznes Active 72 / 100 40% 1 08.05.2027 -
Assane Diao Como Active 142 / 141 40% 4 04.05.2027 -
Moncef Zekri Sporting CP Active 88 / 101 40% 2 04.05.2027 -
Sascha Britschgi AC Milan Active 109 / 128 40% 1 04.05.2027 -
Charlie Gray Fleetwood Town Active 84 / 92 40% 1 02.05.2027 -
Rafael Moreno Atletico Venezuela Active 100 / 104 40% 1 30.04.2027 -
Rhys Walters Port Vale Active 95 / 122 40% 1 28.04.2027 -
Bongani Jali Free State Stars Active 90 / 101 40% 3 27.04.2027 -
Samuele di Benedetto Twente Active 101 / 108 40% 2 27.04.2027 -
Maren Kefas Plateau United Active 97 / 99 40% 3 25.04.2027 -
Víctor Guzmán Sporting CP Active 105 / 111 40% 3 24.04.2027 -
Abubakar Garba Nasarawa United Active 80 / 111 40% 1 23.04.2027 -
Alessandro Zoboletti Sambenedettese Active 79 / 84 40% 1 23.04.2027 -
Mahmoud Labib Heart of Lions Active 75 / 93 40% 1 18.04.2027 -
Olivier Leroux Mouscron Active 104 / 89 40% 1 18.04.2027 -
Luke Baartman Ajax Cape Town Active 112 / 106 40% 3 17.04.2027 -
Etsgar Cruz Ruch Active 92 / 81 40% 1 15.04.2027 -
Dani Ángel Sampdoria Active 86 / 105 40% 2 14.04.2027 -
Lorenzo De Leo Renate Active 111 / 102 40% 2 14.04.2027 -
Kazunari Kita Real Sociedad Active 107 / 119 40% 3 04.04.2027 -
Enzo Koffi Olympique de Marseille Active 104 / 117 40% 1 04.04.2027 -
Nahuel Olmedo Crawley Town Active 85 / 78 40% 1 03.04.2027 -
Ahmed Khaled Paralimni Active 94 / 83 40% 1 02.04.2027 -
Facundo Techera Santos Laguna Active 84 / 78 40% 1 01.04.2027 -
Konta Ismaily Active 82 / 115 40% 1 31.03.2027 -
Kubrat Onasci Septemvri Active 85 / 87 40% 1 29.03.2027 -
Alen Vukaj Alcione Milano Active 85 / 87 40% 1 28.03.2027 -
Samuele Diodato Lumezzane Active 94 / 111 40% 2 27.03.2027 -
Giuseppe Coppola Picerno Active 99 / 101 40% 1 27.03.2027 -
Will Lankshear Middlesbrough Active 128 / 117 40% 1 27.03.2027 -
George Hoddle Cambridge United Active 95 / 89 40% 1 27.03.2027 -
Lucas Agazzi Villarreal Active 124 / 124 40% 1 25.03.2027 -
Alexandro Maidana Eibar Active 111 / 122 40% 1 25.03.2027 -
Jorge Moreno Athletic Bilbao Active 110 / 122 40% 1 25.03.2027 -
Edwin Asamoah Berekum Chelsea Active 85 / 82 40% 2 24.03.2027 -
Axel Frugone Athletic Bilbao Active 112 / 131 40% 2 24.03.2027 -
Federico Valentini Forli Active 97 / 84 40% 2 24.03.2027 -
Matvey Kislyak CSKA Moscow Active 135 / 126 40% 3 21.03.2027 -
Lucas Bergvall Tottenham Active 159 / 162 40% 1 21.03.2027 -
James Dornelly Peterborough United Active 107 / 111 40% 1 20.03.2027 -
Jake Batty Plymouth Argyle Active 94 / 99 40% 1 18.03.2027 -
George Brown Sheffield Wednesday Active 108 / 120 40% 1 17.03.2027 -
Amine Boukamir Charleroi Active 111 / 94 40% 1 14.03.2027 -
Jenson Jones Walsall Active 103 / 103 40% 2 13.03.2027 -
Juan Pablo De la Reta Rayo Vallecano Active 107 / 114 40% 1 11.03.2027 -
Simone Kosijer Triestina Active 99 / 116 40% 1 06.03.2027 -
Dara O'Shea Ipswich Town Active 142 / 117 40% 2 29.11.2026 -
Léo Leroy Preston Active 127 / 136 40% 1 29.11.2026 -
Tomás Händel Crvena Zvezda Active 126 / 138 40% 1 27.11.2026 -
Michael Baidoo Plymouth Argyle Active 132 / 130 40% 1 26.11.2026 -
Teden Mengi Luton Town Active 119 / 118 40% 1 26.11.2026 -
Tyrese Campbell Sheffield United Active 120 / 116 40% 2 23.11.2026 -
Dejan Zukić Vojvodina Active 130 / 125 40% 1 23.11.2026 -
Joe Gelhardt Hull City Active 122 / 130 40% 1 23.11.2026 -
Jacob Greaves Ipswich Town Active 142 / 147 40% 1 23.11.2026 -
Edoardo Bove Watford Active 122 / 134 40% 1 23.11.2026 -
Lucas Da Cunha Como Active 143 / 155 40% 1 22.11.2026 Needs More Info
Shea Charles Southampton Active 143 / 119 40% 1 22.11.2026 -
Aidan Morris Middlesbrough Active 128 / 123 40% 1 20.11.2026 -
Ilyas Ansah Hull City Active 143 / 149 40% 1 18.11.2026 -
Ben Nelson Leicester City Active 123 / 140 40% 1 18.11.2026 -
Santiago Toloza O'Higgins Active 130 / 127 40% 4 16.11.2026 -
Adu Ares Eibar Active 112 / 108 40% 1 16.11.2026 -
Reda Khadra Qarabag Active 129 / 138 40% 1 16.11.2026 -
Danil Glebov Dinamo Moscow Active 120 / 117 40% 1 15.11.2026 -
Nadir Zortea Bologna Active 149 / 149 40% 1 15.11.2026 -
Nicolás Romero Minnesota United FC Active 133 / 113 40% 1 15.11.2026 -
Valentín Gómez Betis Active 125 / 156 40% 1 14.11.2026 -
Tariq Lamptey Queens Park Rangers Active 132 / 138 40% 1 14.11.2026 -
Alexis Cuello San Lorenzo Active 133 / 115 40% 1 13.11.2026 -
Sergey Pinyaev Lokomotiv Moscow Active 134 / 110 40% 1 12.11.2026 -
Sorba Thomas Stoke City Active 129 / 146 40% 1 11.11.2026 -
Alfie Doughty Millwall Active 140 / 113 40% 1 11.11.2026 -
Marcelo Allende Mamelodi Sundowns Active 135 / 119 40% 2 10.11.2026 -
Franco Watson Lanús Active 121 / 119 40% 1 10.11.2026 -
Lucas Cepeda Elche Active 113 / 137 40% 1 06.11.2026 -
Jaminton Campaz Rosario Central Active 127 / 129 40% 1 05.11.2026 -
Joaquín Pereyra Minnesota United FC Active 134 / 112 40% 1 05.11.2026 -
Jacques Ekomié Wrexham Active 116 / 136 40% 1 02.11.2026 -
Talles Magno New York City Active 129 / 137 40% 1 02.11.2026 -
Habib Diarra Sunderland Active 151 / 136 40% 1 02.11.2026 Needs More Info
Welington Southampton Active 136 / 126 40% 1 28.10.2026 -
Amar Memić Viktoria Plzen Active 138 / 140 40% 2 27.10.2026 -
Mamadou Sangaré Brentford Active 129 / 142 40% 1 23.10.2026 -
Alejandro Pozo Standard Liege Active 138 / 108 40% 1 23.10.2026 -
Manu Morlanes Mallorca Active 124 / 140 40% 2 21.10.2026 -
Juan Manuel Sanabria Real Salt Lake Active 141 / 107 40% 2 21.10.2026 -
Marquinhos Spartak Moscow Active 128 / 139 40% 1 21.10.2026 -
Jordan Beyer Burnley Active 146 / 143 40% 1 21.10.2026 -
Yunus Akgün Galatasaray Active 154 / 128 40% 1 17.10.2026 -
Lasse Berg Johnsen Sporting Kansas City Active 111 / 139 40% 1 16.10.2026 -
César Ibáñez Huracán Active 120 / 119 40% 1 09.10.2026 -
Facundo Miño Deportivo Riestra Active 120 / 114 40% 1 09.10.2026 -
Sergi Cardona KAA Gent Active 151 / 153 40% 2 06.10.2026 -
Richard Ledezma Guadalajara Active 138 / 141 40% 3 04.10.2026 -
Luciano Boggio Nacional Active 120 / 123 40% 1 03.10.2026 -
Carlos Forbs Club Brugge Active 117 / 133 40% 1 30.09.2026 -
Bongani Zungu Ajax Cape Town Active 122 / 139 40% 1 24.09.2026 -
David Da Costa Portland Timbers Active 129 / 139 40% 1 20.09.2026 -
Tyrhys Dolan Espanyol Active 122 / 121 40% 1 15.09.2026 -
Mateo Garavito Deportivo Pasto Active 127 / 117 40% 2 12.09.2026 -
Damián Fernández Defensa y Justicia Active 118 / 137 40% 1 12.09.2026 -
Santiago Simón Toluca Active 118 / 127 40% 1 11.09.2026 -
Bryan González Guadalajara Active 137 / 119 40% 1 11.09.2026 -
Jesús Garza Tigres Active 113 / 124 40% 1 10.09.2026 -
Rômulo Tigres Active 114 / 113 40% 1 09.09.2026 -
Martín Ojeda Orlando City Active 139 / 130 40% 1 09.09.2026 -
Nicolás Fonseca Chiapas Active 133 / 134 40% 1 08.09.2026 -